Riverdale, Georgia
Current Conditions -  °F | °C
As of 1:52 PM on Thursday 18 Dec 2014 (Local Time) from KATL Reporting Station
Broken Clouds Broken Clouds  
Wind Chill: 12°   Ceiling: 10000
Heat Index: 12°   Visibility: 10mi
Dew Point: -1°   Wind: 5mph
Humidity: 43%   Direction: 290°WNW
Pressure: 30.11"   Gusts: NA
Location:  33.57°N, 84.41°W
Report Text: KATL 181852Z 29004KT 10SM FEW060 BKN100 BKN250 12/M01 A3011 RMK AO2 SLP201 T01171006
Loading
Personal Weather Stations






























Interactive Weather Map New forecast layout! Learn more

10-Day Weather Forecast

Advertisements
Track Severe Weather on mobile